CheckWX is a tool to help pilots better visualize weather data.  It is not intended as a substitute for an official pre-flight weather briefing.

21:05:14 UTC

KESN METAR
Easton / Newnam Field Airport
Easton, Maryland, USA
Current

15 mins ago

KESN 232050Z 29027G38KT 2SM RA OVC007 27/21 A3011
Observed
May-23 @ 20:50 UTC
Wind
  • 290° at 27 KTS
  • Gusting to 38 KTS
Visibility
2 SM
Flight Rules
IFR
Conditions
Rain
Cloud Levels
  • Overcast at 700' AGL
Temperature
27°C / 81°F
Dewpoint
21°C / 70°F
Heat Index
29°C / 85°F
Humidity
70%
Altimeter
30.11" Hg
Pressure
1019.62 hPa
Previous

1 hour ago

KESN 231950Z 19011G14KT 10SM SCT040 29/21 A3005
Observed
May-23 @ 19:50 UTC
Wind
  • 190° at 11 KTS
  • Gusting to 14 KTS
Visibility
10 SM
Flight Rules
VFR
Cloud Levels
  • Scattered at 4,000' AGL
Temperature
29°C / 84°F
Dewpoint
21°C / 70°F
Heat Index
31°C / 88°F
Humidity
62%
Altimeter
30.05" Hg
Pressure
1017.62 hPa
Previous

2 hours ago

KESN 231850Z 18014G17KT 10SM SCT100 29/20 A3009
Observed
May-23 @ 18:50 UTC
Wind
  • 180° at 14 KTS
  • Gusting to 17 KTS
Visibility
10 SM
Flight Rules
VFR
Cloud Levels
  • Scattered at 10,000' AGL
Temperature
29°C / 84°F
Dewpoint
20°C / 68°F
Heat Index
31°C / 87°F
Humidity
58%
Altimeter
30.09" Hg
Pressure
1018.92 hPa